createdAt,value
2018-05-29T00:00:49.974Z,23.00
2018-05-29T00:03:17.442Z,23.00
2018-05-29T00:05:45.196Z,22.90
2018-05-29T00:08:12.675Z,22.80
2018-05-29T00:10:40.190Z,22.80
2018-05-29T00:13:07.658Z,22.70
2018-05-29T00:15:35.158Z,22.70
2018-05-29T00:18:02.640Z,22.70
2018-05-29T00:20:30.102Z,22.70
2018-05-29T00:22:57.793Z,22.70
2018-05-29T00:25:25.296Z,22.70
2018-05-29T00:27:53.091Z,22.60
2018-05-29T00:30:20.525Z,22.50
2018-05-29T00:32:48.039Z,22.30
2018-05-29T00:35:15.512Z,22.20
2018-05-29T00:37:43.232Z,22.20
2018-05-29T00:40:10.699Z,22.20
2018-05-29T00:42:38.183Z,22.20
2018-05-29T00:45:05.662Z,22.10
2018-05-29T00:47:33.145Z,22.10
2018-05-29T00:50:00.629Z,22.00
2018-05-29T00:52:28.094Z,21.90
2018-05-29T00:55:08.336Z,21.80
2018-05-29T00:57:35.819Z,21.80
2018-05-29T01:00:03.290Z,21.70
2018-05-29T01:02:30.757Z,21.60
2018-05-29T01:04:58.475Z,21.60
2018-05-29T01:07:25.950Z,21.50
2018-05-29T01:09:53.700Z,21.50
2018-05-29T01:12:21.166Z,21.60
2018-05-29T01:14:48.635Z,21.60
2018-05-29T01:17:16.383Z,21.60
2018-05-29T01:19:43.846Z,21.60
2018-05-29T01:22:11.611Z,21.60
2018-05-29T01:24:39.096Z,21.50
2018-05-29T01:27:06.826Z,21.50
2018-05-29T01:29:34.290Z,21.40
2018-05-29T01:32:01.779Z,21.40
2018-05-29T01:34:29.245Z,21.40
2018-05-29T01:36:56.739Z,21.40
2018-05-29T01:39:24.211Z,21.40
2018-05-29T01:41:51.675Z,21.30
2018-05-29T01:44:19.359Z,21.30
2018-05-29T01:46:46.854Z,21.20
2018-05-29T01:49:14.327Z,21.20
2018-05-29T01:51:41.850Z,21.10
2018-05-29T01:54:10.099Z,21.00
2018-05-29T01:56:37.562Z,21.00
2018-05-29T01:59:05.810Z,21.00
2018-05-29T02:01:33.311Z,21.00
2018-05-29T02:04:00.773Z,20.90
2018-05-29T02:06:28.253Z,20.90
2018-05-29T02:08:55.721Z,20.90
2018-05-29T02:11:23.192Z,20.90
2018-05-29T02:13:50.663Z,20.90
2018-05-29T02:16:18.137Z,20.80
2018-05-29T02:18:45.603Z,20.90
2018-05-29T02:21:13.362Z,20.80
2018-05-29T02:23:40.837Z,20.80
2018-05-29T02:26:08.499Z,20.70
2018-05-29T02:28:36.041Z,20.80
2018-05-29T02:31:03.519Z,20.60
2018-05-29T02:33:31.266Z,20.60
2018-05-29T02:35:59.042Z,20.50
2018-05-29T02:38:26.533Z,20.60
2018-05-29T02:40:54.254Z,20.60
2018-05-29T02:43:21.730Z,20.60
2018-05-29T02:45:49.198Z,20.50
2018-05-29T02:48:16.963Z,20.50
2018-05-29T02:50:44.749Z,20.50
2018-05-29T02:53:12.390Z,20.60
2018-05-29T02:55:39.872Z,20.50
2018-05-29T02:58:07.350Z,20.50
2018-05-29T03:00:34.847Z,20.50
2018-05-29T03:03:02.314Z,20.50
2018-05-29T03:05:30.066Z,20.50
2018-05-29T03:07:57.590Z,20.50
2018-05-29T03:10:25.221Z,20.50
2018-05-29T03:12:52.698Z,20.40
2018-05-29T03:15:20.175Z,20.40
2018-05-29T03:17:47.751Z,20.40
2018-05-29T03:20:15.315Z,20.30
2018-05-29T03:22:42.788Z,20.30
2018-05-29T03:25:10.283Z,20.20
2018-05-29T03:27:37.775Z,20.20
2018-05-29T03:30:05.256Z,20.20
2018-05-29T03:32:34.285Z,20.10
2018-05-29T03:35:01.757Z,20.10
2018-05-29T03:37:29.234Z,20.10
2018-05-29T03:39:56.699Z,20.20
2018-05-29T03:42:24.336Z,20.20
2018-05-29T03:44:51.822Z,20.10
2018-05-29T03:47:19.283Z,20.10
2018-05-29T03:49:46.784Z,20.00
2018-05-29T03:52:14.272Z,20.00
2018-05-29T03:54:41.770Z,20.00
2018-05-29T03:57:09.317Z,20.00
2018-05-29T03:59:36.863Z,20.00
2018-05-29T04:02:04.349Z,20.10
2018-05-29T04:04:31.958Z,20.10
2018-05-29T04:06:59.497Z,20.20
2018-05-29T04:09:27.032Z,20.20
2018-05-29T04:11:54.482Z,20.30
2018-05-29T04:14:21.963Z,20.30
2018-05-29T04:16:49.431Z,20.20
2018-05-29T04:19:16.899Z,20.30
2018-05-29T04:21:44.376Z,20.30
2018-05-29T04:24:11.896Z,20.30
2018-05-29T04:26:39.489Z,20.40
2018-05-29T04:29:07.026Z,20.40
2018-05-29T04:31:34.782Z,20.40
2018-05-29T04:34:02.262Z,20.40
2018-05-29T04:36:30.037Z,20.50
2018-05-29T04:38:57.558Z,20.50
2018-05-29T04:41:25.085Z,20.60
2018-05-29T04:43:52.635Z,20.70
2018-05-29T04:46:20.133Z,20.80
2018-05-29T04:48:47.616Z,20.80
2018-05-29T04:51:15.154Z,20.90
2018-05-29T04:53:42.673Z,21.00
2018-05-29T04:56:10.196Z,21.00
2018-05-29T04:58:37.671Z,21.10
2018-05-29T05:01:05.181Z,21.20
2018-05-29T05:03:32.647Z,21.30
2018-05-29T05:06:00.127Z,21.30
2018-05-29T05:08:27.667Z,21.40
2018-05-29T05:10:55.158Z,21.40
2018-05-29T05:13:23.395Z,21.50
2018-05-29T05:15:51.254Z,21.50
2018-05-29T05:18:19.003Z,21.60
2018-05-29T05:20:46.500Z,21.60
2018-05-29T05:23:14.013Z,21.60
2018-05-29T05:25:41.631Z,21.70
2018-05-29T05:28:09.128Z,21.70
2018-05-29T05:30:36.725Z,21.70
2018-05-29T05:33:04.210Z,21.70
2018-05-29T05:35:33.192Z,21.80
2018-05-29T05:38:01.022Z,21.90
2018-05-29T05:40:28.559Z,21.80
2018-05-29T05:42:56.067Z,21.90
2018-05-29T05:45:23.579Z,21.90
2018-05-29T05:47:52.475Z,22.00
2018-05-29T05:50:20.252Z,21.90
2018-05-29T05:52:47.787Z,22.00
2018-05-29T05:55:16.149Z,22.10
2018-05-29T05:57:43.729Z,22.10
2018-05-29T06:00:11.262Z,22.10
2018-05-29T06:02:38.750Z,22.20
2018-05-29T06:05:06.228Z,22.20
2018-05-29T06:07:33.690Z,22.30
2018-05-29T06:10:01.163Z,22.30
2018-05-29T06:12:28.634Z,22.30
2018-05-29T06:14:56.328Z,22.50
2018-05-29T06:17:23.902Z,22.60
2018-05-29T06:19:52.134Z,22.70
2018-05-29T06:22:19.643Z,22.70
2018-05-29T06:24:47.128Z,22.80
2018-05-29T06:27:15.911Z,22.80
2018-05-29T06:29:43.375Z,23.00
2018-05-29T06:32:10.872Z,23.00
2018-05-29T06:34:38.387Z,23.10
2018-05-29T06:37:05.858Z,23.20
2018-05-29T06:39:33.366Z,23.30
2018-05-29T06:42:00.880Z,23.40
2018-05-29T06:44:28.494Z,23.50
2018-05-29T06:46:56.039Z,23.50
2018-05-29T06:49:23.506Z,23.70
2018-05-29T06:51:51.279Z,23.70
2018-05-29T06:54:19.027Z,23.90
2018-05-29T06:56:46.601Z,23.90
2018-05-29T06:59:14.852Z,24.10
2018-05-29T07:01:42.513Z,24.10
2018-05-29T07:04:10.006Z,24.20
2018-05-29T07:06:37.511Z,24.30
2018-05-29T07:09:05.108Z,24.40
2018-05-29T07:11:32.574Z,24.50
2018-05-29T07:14:00.821Z,24.80
2018-05-29T07:16:28.307Z,24.80
2018-05-29T07:18:55.818Z,24.90
2018-05-29T07:21:23.527Z,25.10
2018-05-29T07:23:51.011Z,25.20
2018-05-29T07:26:19.238Z,25.40
2018-05-29T07:28:46.719Z,25.40
2018-05-29T07:31:14.994Z,25.60
2018-05-29T07:33:42.470Z,25.60
2018-05-29T07:36:10.733Z,25.80
2018-05-29T07:38:38.236Z,25.80
2018-05-29T07:41:05.707Z,25.90
2018-05-29T07:43:33.212Z,26.00
2018-05-29T07:46:00.739Z,26.20
2018-05-29T07:48:28.286Z,26.30
2018-05-29T07:50:55.801Z,26.30
2018-05-29T07:53:23.380Z,26.30
2018-05-29T07:55:51.680Z,26.80
2018-05-29T07:58:19.267Z,26.70
2018-05-29T08:00:46.847Z,26.90
2018-05-29T08:03:14.614Z,27.20
2018-05-29T08:05:42.374Z,27.40
2018-05-29T08:08:09.904Z,27.60
2018-05-29T08:10:37.504Z,27.90
2018-05-29T08:13:05.059Z,28.10
2018-05-29T08:15:32.815Z,28.30
2018-05-29T08:18:00.286Z,28.50
2018-05-29T08:20:27.747Z,28.50
2018-05-29T08:22:55.503Z,28.90
2018-05-29T08:25:23.278Z,29.10
2018-05-29T08:27:51.360Z,29.50
2018-05-29T08:30:18.835Z,29.90
2018-05-29T08:32:46.294Z,30.20
2018-05-29T08:35:13.868Z,30.40
2018-05-29T08:37:41.435Z,30.50
2018-05-29T08:40:08.911Z,30.90
2018-05-29T08:42:36.370Z,31.40
2018-05-29T08:45:03.843Z,31.70
2018-05-29T08:47:31.307Z,32.00
2018-05-29T08:49:59.074Z,32.50
2018-05-29T08:52:26.839Z,32.90
2018-05-29T08:54:54.606Z,33.00
2018-05-29T08:57:22.346Z,33.10
2018-05-29T08:59:49.818Z,33.40
2018-05-29T09:02:17.323Z,33.60
2018-05-29T09:04:44.787Z,34.10
2018-05-29T09:07:12.527Z,34.60
2018-05-29T09:09:40.262Z,34.20
2018-05-29T09:12:07.747Z,34.90
2018-05-29T09:14:36.731Z,34.90
2018-05-29T09:17:05.726Z,35.30
2018-05-29T09:19:33.199Z,35.30
2018-05-29T09:22:00.943Z,35.90
2018-05-29T09:24:30.224Z,36.80
2018-05-29T09:26:57.741Z,36.80
2018-05-29T09:29:25.482Z,37.60
2018-05-29T09:31:53.018Z,38.50
2018-05-29T09:34:20.479Z,38.20
2018-05-29T09:36:47.948Z,38.50
2018-05-29T09:39:15.617Z,38.70
2018-05-29T09:41:44.623Z,38.80
2018-05-29T09:44:12.083Z,38.70
2018-05-29T09:46:39.751Z,38.10
2018-05-29T09:49:07.288Z,38.80
2018-05-29T09:51:34.776Z,39.30
2018-05-29T09:54:02.252Z,39.70
2018-05-29T09:56:30.012Z,39.80
2018-05-29T09:58:57.448Z,39.60
2018-05-29T10:01:24.922Z,39.30
2018-05-29T10:03:52.377Z,39.90
2018-05-29T10:06:19.854Z,40.70
2018-05-29T10:08:47.323Z,41.50
2018-05-29T10:11:14.849Z,41.40
2018-05-29T10:13:42.306Z,40.80
2018-05-29T10:16:10.551Z,40.20
2018-05-29T10:18:38.003Z,40.10
2018-05-29T10:21:05.469Z,40.70
2018-05-29T10:23:33.235Z,40.50
2018-05-29T10:26:01.270Z,40.50
2018-05-29T10:28:28.738Z,40.70
2018-05-29T10:30:56.213Z,40.60
2018-05-29T10:33:23.673Z,40.50
2018-05-29T10:35:51.134Z,40.40
2018-05-29T10:38:18.607Z,41.10
2018-05-29T10:40:46.071Z,41.70
2018-05-29T10:43:13.818Z,41.50
2018-05-29T10:45:41.277Z,41.40
2018-05-29T10:48:10.242Z,41.90
2018-05-29T10:50:37.722Z,41.90
2018-05-29T10:53:05.186Z,42.50
2018-05-29T10:55:32.674Z,43.10
2018-05-29T10:58:00.139Z,43.10
2018-05-29T11:00:27.608Z,43.10
2018-05-29T11:02:55.074Z,43.00
2018-05-29T11:05:22.527Z,43.00
2018-05-29T11:07:50.362Z,42.90
2018-05-29T11:10:18.001Z,43.00
2018-05-29T11:12:45.787Z,42.90
2018-05-29T11:15:13.388Z,42.80
2018-05-29T11:17:40.980Z,43.00
2018-05-29T11:20:08.455Z,42.30
2018-05-29T11:22:35.922Z,42.70
2018-05-29T11:25:03.387Z,43.00
2018-05-29T11:27:31.142Z,42.80
2018-05-29T11:29:58.598Z,41.90
2018-05-29T11:32:26.280Z,42.00
2018-05-29T11:34:53.766Z,42.50
2018-05-29T11:37:21.227Z,43.40
2018-05-29T11:39:48.700Z,43.50
2018-05-29T11:42:16.166Z,43.80
2018-05-29T11:44:43.664Z,43.50
2018-05-29T11:47:11.144Z,43.40
2018-05-29T11:49:38.624Z,43.90
2018-05-29T11:52:06.342Z,44.10
2018-05-29T11:54:33.867Z,44.30
2018-05-29T11:57:01.340Z,43.70
2018-05-29T11:59:28.972Z,43.50
2018-05-29T12:01:56.433Z,43.50
2018-05-29T12:04:23.935Z,42.80
2018-05-29T12:06:51.426Z,42.30
2018-05-29T12:09:18.882Z,42.10
2018-05-29T12:11:46.362Z,41.50
2018-05-29T12:14:13.851Z,42.10
2018-05-29T12:16:41.331Z,41.90
2018-05-29T12:19:08.828Z,43.00
2018-05-29T12:21:36.299Z,43.40
2018-05-29T12:24:03.775Z,44.00
2018-05-29T12:26:31.310Z,44.40
2018-05-29T12:28:58.784Z,45.50
2018-05-29T12:31:26.290Z,45.40
2018-05-29T12:33:53.750Z,43.90
2018-05-29T12:36:21.299Z,45.50
2018-05-29T12:38:48.809Z,45.90
2018-05-29T12:41:16.574Z,45.50
2018-05-29T12:43:44.088Z,45.00
2018-05-29T12:46:11.637Z,45.20
2018-05-29T12:48:39.047Z,46.00
2018-05-29T12:51:06.553Z,46.20
2018-05-29T12:53:34.027Z,45.90
2018-05-29T12:56:01.505Z,45.90
2018-05-29T12:58:29.079Z,45.30
2018-05-29T13:00:56.554Z,45.00
2018-05-29T13:03:24.020Z,43.80
2018-05-29T13:05:51.507Z,43.00
2018-05-29T13:08:19.022Z,42.50
2018-05-29T13:10:46.512Z,42.80
2018-05-29T13:13:13.982Z,43.10
2018-05-29T13:15:41.459Z,43.60
2018-05-29T13:18:08.940Z,43.70
2018-05-29T13:20:36.402Z,43.40
2018-05-29T13:23:03.871Z,42.90
2018-05-29T13:25:31.336Z,41.90
2018-05-29T13:27:59.140Z,41.00
2018-05-29T13:30:26.602Z,39.90
2018-05-29T13:32:54.070Z,38.90
2018-05-29T13:35:21.648Z,37.90
2018-05-29T13:37:49.125Z,37.50
2018-05-29T13:40:16.642Z,37.10
2018-05-29T13:42:44.120Z,37.00
2018-05-29T13:45:11.585Z,36.50
2018-05-29T13:47:39.085Z,36.30
2018-05-29T13:50:06.574Z,35.90
2018-05-29T13:52:34.256Z,35.50
2018-05-29T13:55:02.010Z,35.40
2018-05-29T13:57:30.310Z,34.90
2018-05-29T13:59:57.843Z,34.90
2018-05-29T14:02:25.593Z,34.60
2018-05-29T14:04:53.057Z,34.40
2018-05-29T14:07:20.574Z,34.20
2018-05-29T14:09:48.035Z,34.00
2018-05-29T14:12:15.502Z,33.80
2018-05-29T14:14:43.358Z,33.70
2018-05-29T14:17:10.832Z,33.50
2018-05-29T14:19:38.346Z,33.20
2018-05-29T14:22:05.804Z,33.00
2018-05-29T14:24:33.286Z,32.80
2018-05-29T14:27:00.748Z,32.40
2018-05-29T14:29:29.179Z,32.10
2018-05-29T14:31:56.663Z,32.10
2018-05-29T14:34:24.133Z,32.10
2018-05-29T14:36:51.627Z,32.00
2018-05-29T14:39:19.102Z,31.70
2018-05-29T14:41:46.571Z,31.40
2018-05-29T14:44:14.085Z,31.30
2018-05-29T14:46:42.329Z,31.10
2018-05-29T14:49:10.017Z,31.00
2018-05-29T14:51:37.534Z,30.50
2018-05-29T14:54:05.017Z,30.00
2018-05-29T14:56:32.498Z,29.40
2018-05-29T14:58:59.974Z,29.10
2018-05-29T15:01:27.607Z,28.90
2018-05-29T15:03:55.076Z,28.40
2018-05-29T15:06:22.578Z,28.20
2018-05-29T15:08:50.047Z,27.90
2018-05-29T15:11:17.822Z,27.50
2018-05-29T15:13:45.328Z,27.20
2018-05-29T15:16:12.843Z,26.90
2018-05-29T15:18:40.464Z,26.80
2018-05-29T15:21:08.061Z,26.90
2018-05-29T15:23:36.357Z,27.00
2018-05-29T15:26:03.913Z,26.90
2018-05-29T15:28:31.693Z,27.10
2018-05-29T15:30:59.198Z,27.10
2018-05-29T15:33:26.670Z,27.20
2018-05-29T15:35:54.266Z,27.10
2018-05-29T15:38:21.752Z,27.00
2018-05-29T15:40:49.278Z,26.80
2018-05-29T15:43:16.744Z,26.40
2018-05-29T15:45:44.387Z,26.20
2018-05-29T15:48:11.957Z,26.20
2018-05-29T15:50:40.208Z,25.90
2018-05-29T15:53:07.710Z,25.80
2018-05-29T15:55:35.197Z,25.70
2018-05-29T15:58:02.919Z,25.40
2018-05-29T16:00:30.699Z,25.10
2018-05-29T16:02:58.191Z,25.00
2018-05-29T16:05:25.915Z,24.70
2018-05-29T16:07:53.655Z,24.40
2018-05-29T16:10:21.131Z,24.10
2018-05-29T16:12:48.616Z,24.00
2018-05-29T16:15:16.085Z,23.60
2018-05-29T16:17:43.572Z,23.50
2018-05-29T16:20:11.046Z,23.20
2018-05-29T16:22:38.535Z,22.90
2018-05-29T16:25:05.998Z,22.80
2018-05-29T16:27:33.709Z,22.60
2018-05-29T16:30:01.227Z,22.50
2018-05-29T16:32:28.789Z,22.30
2018-05-29T16:34:56.339Z,22.40
2018-05-29T16:37:23.808Z,22.40
2018-05-29T16:39:51.275Z,22.30
2018-05-29T16:42:18.914Z,22.40
2018-05-29T16:44:46.395Z,22.60
2018-05-29T16:47:13.875Z,22.60
2018-05-29T16:49:41.341Z,22.40
2018-05-29T16:52:09.125Z,22.30
2018-05-29T16:54:36.592Z,22.30
2018-05-29T16:57:04.066Z,22.40
2018-05-29T16:59:31.806Z,22.50
2018-05-29T17:01:59.575Z,22.40
2018-05-29T17:04:27.348Z,22.50
2018-05-29T17:06:54.823Z,22.60
2018-05-29T17:09:22.310Z,22.70
2018-05-29T17:11:49.882Z,22.70
2018-05-29T17:14:17.482Z,22.90
2018-05-29T17:16:44.964Z,22.80
2018-05-29T17:19:12.707Z,22.90
2018-05-29T17:21:40.470Z,22.90
2018-05-29T17:24:08.235Z,22.90
2018-05-29T17:26:35.919Z,22.90
2018-05-29T17:29:03.374Z,22.90
2018-05-29T17:31:30.838Z,22.80
2018-05-29T17:33:58.307Z,22.80
2018-05-29T17:36:25.774Z,22.80
2018-05-29T17:38:53.235Z,22.70
2018-05-29T17:41:20.698Z,22.80
2018-05-29T17:43:48.173Z,22.80
2018-05-29T17:46:15.643Z,22.90
2018-05-29T17:48:43.100Z,22.80
2018-05-29T17:51:10.566Z,22.80
2018-05-29T17:53:38.068Z,22.90
2018-05-29T17:56:05.611Z,23.00
2018-05-29T17:58:33.839Z,22.90
2018-05-29T18:01:01.330Z,22.90
2018-05-29T18:03:28.794Z,22.60
2018-05-29T18:05:56.260Z,22.40
2018-05-29T18:08:23.972Z,22.20
2018-05-29T18:10:51.444Z,22.10
2018-05-29T18:13:19.053Z,22.10
2018-05-29T18:15:46.467Z,22.00
2018-05-29T18:18:14.082Z,22.00
2018-05-29T18:20:41.558Z,22.10
2018-05-29T18:23:09.026Z,22.10
2018-05-29T18:25:36.838Z,22.10
2018-05-29T18:28:04.310Z,22.10
2018-05-29T18:30:31.985Z,22.20
2018-05-29T18:32:59.521Z,22.20
2018-05-29T18:35:26.983Z,22.10
2018-05-29T18:37:54.757Z,22.10
2018-05-29T18:40:22.995Z,22.10
2018-05-29T18:42:50.475Z,22.10
2018-05-29T18:45:18.034Z,22.00
2018-05-29T18:47:45.878Z,22.00
2018-05-29T18:50:13.368Z,21.90
2018-05-29T18:52:40.827Z,21.90
2018-05-29T18:55:08.302Z,22.00
2018-05-29T18:57:36.858Z,21.90
2018-05-29T19:00:04.324Z,21.90
2018-05-29T19:02:31.796Z,21.90
2018-05-29T19:04:59.480Z,21.90
2018-05-29T19:07:26.939Z,21.90
2018-05-29T19:09:54.457Z,22.00
2018-05-29T19:12:21.946Z,21.90
2018-05-29T19:14:49.410Z,21.90
2018-05-29T19:17:16.909Z,21.90
2018-05-29T19:19:44.748Z,22.00
2018-05-29T19:22:12.346Z,22.00
2018-05-29T19:24:40.099Z,21.90
2018-05-29T19:27:07.563Z,21.90
2018-05-29T19:29:35.092Z,21.90
2018-05-29T19:32:02.557Z,21.80
2018-05-29T19:34:30.032Z,21.80
2018-05-29T19:36:57.503Z,21.60
2018-05-29T19:39:25.187Z,21.60
2018-05-29T19:41:57.560Z,21.50
2018-05-29T19:44:25.074Z,21.60
2018-05-29T19:46:52.686Z,21.50
2018-05-29T19:49:20.238Z,21.50
2018-05-29T19:51:47.718Z,21.40
2018-05-29T19:54:15.230Z,21.30
2018-05-29T19:56:42.694Z,21.40
2018-05-29T19:59:10.323Z,21.30
2018-05-29T20:01:37.783Z,21.30
2018-05-29T20:04:05.258Z,21.40
2018-05-29T20:06:32.751Z,21.30
2018-05-29T20:09:00.211Z,21.30
2018-05-29T20:11:27.686Z,21.30
2018-05-29T20:13:55.150Z,21.30
2018-05-29T20:16:22.915Z,21.30
2018-05-29T20:18:50.650Z,21.30
2018-05-29T20:21:18.120Z,21.20
2018-05-29T20:23:45.631Z,21.20
2018-05-29T20:26:13.110Z,21.20
2018-05-29T20:28:40.579Z,21.20
2018-05-29T20:31:08.087Z,21.10
2018-05-29T20:33:35.544Z,21.10
2018-05-29T20:36:03.016Z,21.00
2018-05-29T20:38:30.493Z,21.00
2018-05-29T20:40:57.967Z,20.90
2018-05-29T20:43:25.451Z,20.90
2018-05-29T20:45:52.916Z,20.90
2018-05-29T20:48:21.156Z,20.60
2018-05-29T20:50:48.618Z,20.50
2018-05-29T20:53:16.130Z,20.50
2018-05-29T20:55:43.615Z,20.40
2018-05-29T20:58:11.365Z,20.40
2018-05-29T21:00:38.831Z,20.40
2018-05-29T21:03:06.309Z,20.40
2018-05-29T21:05:33.783Z,20.40
2018-05-29T21:08:01.354Z,20.40
2018-05-29T21:10:29.118Z,20.40
2018-05-29T21:12:56.587Z,20.40
2018-05-29T21:15:24.080Z,20.30
2018-05-29T21:17:52.176Z,20.30
2018-05-29T21:20:19.869Z,20.30
2018-05-29T21:22:47.348Z,20.20
2018-05-29T21:25:14.819Z,20.30
2018-05-29T21:27:42.559Z,20.30
2018-05-29T21:30:10.031Z,20.30
2018-05-29T21:32:37.700Z,20.20
2018-05-29T21:35:05.271Z,20.30
2018-05-29T21:37:32.949Z,20.20
2018-05-29T21:40:00.409Z,20.30
2018-05-29T21:42:27.887Z,20.20
2018-05-29T21:44:55.374Z,20.20
2018-05-29T21:47:22.844Z,20.20
2018-05-29T21:49:50.603Z,20.20
2018-05-29T21:52:18.060Z,20.20
2018-05-29T21:54:45.539Z,20.20
2018-05-29T21:57:13.002Z,20.20
2018-05-29T21:59:40.742Z,20.20
2018-05-29T22:02:08.508Z,20.20
2018-05-29T22:04:36.280Z,20.20
2018-05-29T22:07:03.755Z,20.20
2018-05-29T22:09:31.242Z,20.20
2018-05-29T22:11:58.715Z,20.20
2018-05-29T22:14:26.333Z,20.20
2018-05-29T22:16:53.871Z,20.20
2018-05-29T22:19:21.627Z,20.20
2018-05-29T22:21:50.718Z,20.20
2018-05-29T22:24:18.186Z,20.20
2018-05-29T22:26:45.643Z,20.20
2018-05-29T22:29:13.114Z,20.20
2018-05-29T22:31:41.342Z,20.30
2018-05-29T22:34:08.828Z,20.20
2018-05-29T22:36:37.827Z,20.20
2018-05-29T22:39:06.210Z,20.20
2018-05-29T22:41:35.206Z,20.10
2018-05-29T22:44:02.691Z,20.10
2018-05-29T22:46:30.167Z,20.10
2018-05-29T22:48:57.633Z,20.10
2018-05-29T22:51:25.134Z,20.10
2018-05-29T22:53:52.805Z,20.10
2018-05-29T22:56:20.281Z,20.10
2018-05-29T22:58:48.029Z,20.10
2018-05-29T23:01:17.023Z,20.10
2018-05-29T23:03:44.483Z,20.00
2018-05-29T23:06:12.244Z,20.00
2018-05-29T23:08:41.243Z,20.10
2018-05-29T23:11:09.010Z,20.00
2018-05-29T23:13:36.771Z,20.10
2018-05-29T23:16:04.238Z,20.10
2018-05-29T23:18:31.943Z,20.10
2018-05-29T23:20:59.486Z,20.10
2018-05-29T23:23:27.214Z,20.10
2018-05-29T23:25:54.674Z,20.10
2018-05-29T23:28:22.146Z,20.20
2018-05-29T23:30:50.426Z,20.20
2018-05-29T23:33:17.919Z,20.10
2018-05-29T23:35:45.585Z,20.10
2018-05-29T23:38:13.176Z,20.10
2018-05-29T23:40:40.636Z,20.10
2018-05-29T23:43:08.121Z,20.10
2018-05-29T23:45:35.583Z,20.10
2018-05-29T23:48:03.040Z,20.10
2018-05-29T23:50:30.489Z,20.10
2018-05-29T23:52:58.252Z,20.10
2018-05-29T23:55:25.708Z,20.00
2018-05-29T23:57:53.172Z,20.10
